Aérodrome :
LOGIN :

S'inscrire | Disclaimer

   EN    FR    IT 

 










Légende :    VFR   VFR Marginal   IFR   IFR Intensif   IFR Très Intensif
Visi : 
Plafond : 
>= 8 km
>= 3000ft
5 à 8 km
1000 à 3000 ft
1500m à 5 km
500 à 1000 ft
800 à 1500m
200 à 500 ft
< 800m
< 200 ft
Symboles :   Orages  Brouillard  Fortes neiges  Fortes précipitations  Vent > 20 kt
SIGMETs :   Divers  Orages  Givrage  Turbulence  Onde Orograph.  Cendres Volcan.






- Altitude de l'aérodrome : 284 ft


EGUW - RAF Wattisham

DERNIER METAR :
  • 301120Z 30017KT CAVOK 08/02 Q1023 NOSIG RMK BLU BLU

METARs EXPIRÉS :
  • 301050Z 29016G26KT CAVOK 07/02 Q1022 NOSIG RMK BLU BLU
  • 301020Z AUTO 29016KT 9999 NCD 07/02 Q1022
  • 300950Z 29016KT CAVOK 06/02 Q1022 NOSIG RMK BLU BLU
  • 300920Z 29014KT CAVOK 06/02 Q1021 NOSIG RMK BLU BLU
  • 300850Z 28014KT 9999 FEW035 05/01 Q1021 NOSIG RMK BLU BLU

TAF TAF EGUW
Valide du 30 à 12h jusqu'au 30 à 21h UTC


301030Z 3012/3021 29013KT 9999 SCT035



MET'MAP, la Météo Aéronautique d'un coup d'oeil ! - Copyright ORBIFLY Décembre 2007 - Disclaimer

ORBIFLY MET'MAP TEAM :

Programmation & Développement : Alexandra Zaïnal
Sur une idée originale de : Baudouin d'Aumeries
Soutien technique & logistique : Manuel Goepfert
Assistance : Marc-Olivier Méhu




SOURCES & CREDITS :

   NOAA